createdAt,value
2019-03-25T00:04:47.305Z,9.00
2019-03-25T00:09:50.883Z,11.90
2019-03-25T00:14:54.381Z,11.85
2019-03-25T00:19:57.882Z,11.20
2019-03-25T00:25:01.412Z,11.97
2019-03-25T00:30:06.146Z,12.90
2019-03-25T00:35:10.155Z,12.35
2019-03-25T00:40:13.958Z,12.23
2019-03-25T00:45:17.537Z,13.93
2019-03-25T00:50:21.068Z,12.80
2019-03-25T00:55:24.642Z,13.95
2019-03-25T01:00:28.365Z,14.68
2019-03-25T01:05:31.947Z,13.98
2019-03-25T01:10:35.509Z,13.40
2019-03-25T01:15:38.986Z,15.53
2019-03-25T01:20:42.536Z,13.72
2019-03-25T01:25:46.105Z,15.75
2019-03-25T01:30:49.654Z,15.70
2019-03-25T01:35:53.169Z,16.40
2019-03-25T01:40:56.711Z,15.00
2019-03-25T01:46:00.185Z,17.25
2019-03-25T01:51:03.754Z,14.95
2019-03-25T01:56:07.246Z,15.35
2019-03-25T02:01:10.875Z,17.30
2019-03-25T02:06:14.399Z,15.45
2019-03-25T02:11:17.869Z,17.40
2019-03-25T02:16:21.338Z,15.98
2019-03-25T02:21:24.807Z,16.37
2019-03-25T02:26:28.285Z,18.23
2019-03-25T02:31:31.769Z,18.70
2019-03-25T02:36:36.179Z,20.48
2019-03-25T02:41:39.661Z,17.87
2019-03-25T02:46:43.134Z,18.05
2019-03-25T02:51:46.681Z,17.92
2019-03-25T02:56:50.275Z,18.50
2019-03-25T03:01:53.988Z,18.15
2019-03-25T03:06:57.465Z,19.25
2019-03-25T03:12:01.419Z,20.30
2019-03-25T03:17:04.964Z,19.67
2019-03-25T03:22:08.461Z,16.50
2019-03-25T03:27:12.014Z,21.27
2019-03-25T03:32:15.561Z,18.70
2019-03-25T03:37:19.077Z,19.23
2019-03-25T03:42:23.180Z,19.10
2019-03-25T03:47:26.740Z,20.10
2019-03-25T03:52:30.276Z,18.90
2019-03-25T03:57:34.289Z,20.80
2019-03-25T04:02:39.337Z,19.92
2019-03-25T04:07:42.845Z,22.77
2019-03-25T04:12:46.323Z,18.23
2019-03-25T04:17:49.878Z,20.20
2019-03-25T04:22:53.430Z,18.02
2019-03-25T04:27:56.962Z,19.45
2019-03-25T04:33:00.451Z,18.80
2019-03-25T04:38:04.003Z,17.92
2019-03-25T04:43:07.560Z,18.07
2019-03-25T04:48:11.144Z,17.67
2019-03-25T04:53:14.778Z,18.40
2019-03-25T04:58:18.325Z,18.73
2019-03-25T05:03:23.773Z,19.77
2019-03-25T05:08:27.351Z,19.10
2019-03-25T05:13:30.897Z,16.00
2019-03-25T05:18:34.453Z,17.25
2019-03-25T05:23:38.028Z,18.65
2019-03-25T05:28:41.528Z,16.15
2019-03-25T05:33:45.047Z,17.27
2019-03-25T05:38:48.994Z,17.95
2019-03-25T05:43:52.464Z,17.07
2019-03-25T05:48:55.970Z,15.63
2019-03-25T05:53:59.470Z,17.92
2019-03-25T05:59:02.935Z,17.15
2019-03-25T06:04:06.447Z,17.67
2019-03-25T06:09:09.939Z,22.58
2019-03-25T06:14:13.446Z,23.22
2019-03-25T06:19:17.044Z,138.20
2019-03-25T06:24:20.539Z,157.67
2019-03-25T06:29:24.012Z,101.12
2019-03-25T06:34:27.513Z,76.20
2019-03-25T06:39:30.987Z,67.30
2019-03-25T06:44:34.484Z,56.13
2019-03-25T06:49:37.992Z,60.05
2019-03-25T06:54:41.496Z,53.48
2019-03-25T06:59:45.355Z,45.33
2019-03-25T07:04:48.904Z,39.50
2019-03-25T07:09:52.652Z,37.53
2019-03-25T07:14:56.142Z,58.28
2019-03-25T07:19:59.634Z,46.98
2019-03-25T07:25:04.400Z,43.42
2019-03-25T07:30:08.516Z,42.13
2019-03-25T07:35:12.192Z,40.83
2019-03-25T07:40:16.008Z,39.73
2019-03-25T07:45:19.680Z,40.58
2019-03-25T07:50:23.173Z,35.52
2019-03-25T07:55:26.678Z,29.77
2019-03-25T08:00:30.258Z,32.67
2019-03-25T08:05:33.809Z,25.55
2019-03-25T08:10:37.343Z,29.15
2019-03-25T08:15:40.812Z,25.57
2019-03-25T08:20:44.343Z,25.17
2019-03-25T08:25:47.852Z,28.52
2019-03-25T08:30:51.350Z,24.37
2019-03-25T08:35:54.891Z,24.63
2019-03-25T08:40:58.359Z,30.12
2019-03-25T08:46:01.898Z,22.67
2019-03-25T08:51:05.720Z,22.60
2019-03-25T08:56:09.198Z,26.82
2019-03-25T09:01:12.750Z,26.30
2019-03-25T09:06:16.280Z,21.57
2019-03-25T09:11:19.772Z,20.10
2019-03-25T09:16:23.354Z,16.50
2019-03-25T09:21:26.871Z,17.75
2019-03-25T09:26:30.367Z,16.27
2019-03-25T09:31:36.908Z,14.78
2019-03-25T09:36:39.176Z,16.90
2019-03-25T09:41:42.729Z,14.58
2019-03-25T09:46:46.292Z,16.65
2019-03-25T09:51:49.862Z,13.70
2019-03-25T09:56:53.446Z,19.55
2019-03-25T10:01:56.995Z,16.40
2019-03-25T10:07:00.479Z,13.38
2019-03-25T10:12:04.170Z,12.55
2019-03-25T10:17:07.638Z,14.35
2019-03-25T10:22:11.175Z,12.98
2019-03-25T10:27:14.745Z,11.78
2019-03-25T10:32:18.250Z,12.07
2019-03-25T10:37:24.613Z,11.38
2019-03-25T10:42:29.614Z,10.58
2019-03-25T10:47:33.203Z,10.58
2019-03-25T10:52:36.655Z,12.20
2019-03-25T10:57:40.203Z,14.03
2019-03-25T11:02:43.895Z,9.53
2019-03-25T11:07:47.439Z,10.93
2019-03-25T11:12:51.044Z,9.18
2019-03-25T11:17:54.548Z,12.37
2019-03-25T11:22:58.119Z,12.47
2019-03-25T11:28:01.870Z,10.18
2019-03-25T11:33:05.442Z,13.08
2019-03-25T11:38:08.984Z,12.07
2019-03-25T11:43:12.479Z,8.98
2019-03-25T11:48:15.980Z,9.90
2019-03-25T11:53:19.583Z,8.83
2019-03-25T11:58:23.123Z,10.15
2019-03-25T12:03:26.622Z,16.62
2019-03-25T12:08:30.085Z,11.68
2019-03-25T12:13:33.573Z,11.08
2019-03-25T12:18:37.052Z,10.30
2019-03-25T12:23:40.515Z,10.90
2019-03-25T12:28:44.052Z,14.35
2019-03-25T12:33:49.156Z,11.38
2019-03-25T12:38:52.717Z,14.43
2019-03-25T12:43:56.373Z,20.20
2019-03-25T12:48:59.914Z,18.62
2019-03-25T12:54:03.409Z,17.20
2019-03-25T12:59:06.957Z,19.87
2019-03-25T13:04:10.454Z,17.65
2019-03-25T13:09:13.912Z,14.50
2019-03-25T13:14:17.372Z,14.90
2019-03-25T13:19:20.826Z,12.93
2019-03-25T13:24:24.307Z,14.63
2019-03-25T13:29:27.861Z,17.42
2019-03-25T13:34:31.378Z,18.12
2019-03-25T13:39:34.827Z,28.12
2019-03-25T13:44:38.317Z,25.60
2019-03-25T13:49:41.894Z,19.42
2019-03-25T13:54:45.349Z,14.55
2019-03-25T13:59:48.816Z,20.12
2019-03-25T14:04:52.283Z,15.70
2019-03-25T14:09:55.755Z,18.95
2019-03-25T14:14:59.254Z,14.03
2019-03-25T14:20:02.807Z,12.88
2019-03-25T14:25:06.810Z,12.30
2019-03-25T14:30:14.751Z,13.68
2019-03-25T14:35:16.542Z,9.45
2019-03-25T14:40:19.998Z,9.55
2019-03-25T14:45:26.545Z,8.85
2019-03-25T14:50:28.938Z,24.00
2019-03-25T14:55:32.493Z,11.22
2019-03-25T15:00:35.986Z,14.20
2019-03-25T15:05:39.525Z,13.22
2019-03-25T15:10:52.997Z,19.02
2019-03-25T15:15:48.301Z,14.18
2019-03-25T15:20:51.852Z,14.98
2019-03-25T15:25:55.353Z,15.75
2019-03-25T15:30:58.884Z,19.62
2019-03-25T15:36:02.409Z,10.25
2019-03-25T15:41:05.976Z,11.78
2019-03-25T15:46:09.476Z,12.80
2019-03-25T15:51:12.988Z,15.18
2019-03-25T15:56:16.457Z,9.03
2019-03-25T16:01:19.921Z,10.18
2019-03-25T16:06:23.461Z,14.90
2019-03-25T16:11:26.936Z,16.45
2019-03-25T16:16:30.423Z,15.72
2019-03-25T16:21:33.909Z,18.92
2019-03-25T16:26:37.447Z,11.60
2019-03-25T16:31:41.086Z,12.15
2019-03-25T16:36:44.589Z,11.97
2019-03-25T16:41:49.762Z,13.18
2019-03-25T16:46:53.258Z,9.33
2019-03-25T16:51:56.813Z,13.62
2019-03-25T16:57:00.301Z,15.18
2019-03-25T17:02:03.829Z,10.03
2019-03-25T17:07:07.288Z,13.50
2019-03-25T17:12:10.763Z,11.30
2019-03-25T17:17:14.279Z,10.13
2019-03-25T17:22:17.852Z,10.23
2019-03-25T17:27:21.334Z,11.88
2019-03-25T17:32:24.792Z,18.87
2019-03-25T17:37:28.300Z,13.68
2019-03-25T17:42:31.762Z,15.93
2019-03-25T17:47:35.229Z,12.70
2019-03-25T17:52:38.740Z,14.95
2019-03-25T17:57:42.292Z,18.52
2019-03-25T18:02:45.820Z,11.90
2019-03-25T18:07:49.295Z,9.70
2019-03-25T18:12:52.810Z,12.20
2019-03-25T18:17:56.317Z,8.55
2019-03-25T18:22:59.838Z,14.73
2019-03-25T18:28:03.444Z,11.43
2019-03-25T18:33:06.917Z,9.30
2019-03-25T18:38:10.397Z,12.47
2019-03-25T18:43:13.875Z,18.80
2019-03-25T18:48:17.528Z,10.85
2019-03-25T18:53:21.074Z,14.47
2019-03-25T18:58:24.611Z,11.25
2019-03-25T19:03:28.147Z,10.50
2019-03-25T19:08:31.914Z,15.18
2019-03-25T19:13:35.458Z,9.25
2019-03-25T19:18:38.927Z,12.55
2019-03-25T19:23:42.428Z,11.00
2019-03-25T19:28:45.952Z,13.45
2019-03-25T19:33:49.422Z,11.15
2019-03-25T19:38:52.892Z,14.00
2019-03-25T19:43:56.546Z,10.58
2019-03-25T19:49:00.126Z,9.05
2019-03-25T19:54:03.754Z,8.30
2019-03-25T19:59:07.268Z,10.23
2019-03-25T20:04:10.820Z,9.23
2019-03-25T20:09:14.389Z,9.08
2019-03-25T20:14:17.895Z,13.18
2019-03-25T20:19:21.386Z,10.15
2019-03-25T20:24:25.201Z,10.72
2019-03-25T20:29:28.785Z,9.55
2019-03-25T20:34:32.490Z,8.55
2019-03-25T20:39:36.040Z,7.62
2019-03-25T20:44:39.577Z,7.85
2019-03-25T20:49:43.051Z,7.90
2019-03-25T20:54:46.622Z,6.08
2019-03-25T20:59:50.173Z,8.50
2019-03-25T21:04:53.805Z,9.78
2019-03-25T21:09:57.717Z,8.43
2019-03-25T21:15:01.336Z,8.18
2019-03-25T21:20:07.675Z,9.30
2019-03-25T21:25:11.226Z,11.22
2019-03-25T21:30:15.394Z,10.35
2019-03-25T21:35:19.026Z,7.42
2019-03-25T21:40:22.542Z,9.13
2019-03-25T21:45:26.067Z,7.15
2019-03-25T21:50:29.636Z,8.30
2019-03-25T21:55:33.430Z,7.35
2019-03-25T22:00:39.505Z,6.80
2019-03-25T22:05:43.042Z,9.28
2019-03-25T22:10:46.567Z,8.23
2019-03-25T22:15:50.040Z,8.15
2019-03-25T22:20:53.494Z,7.65
2019-03-25T22:25:56.995Z,7.75
2019-03-25T22:31:00.456Z,7.28
2019-03-25T22:36:03.940Z,7.70
2019-03-25T22:41:07.439Z,7.83
2019-03-25T22:46:10.934Z,8.00
2019-03-25T22:51:14.424Z,6.92
2019-03-25T22:56:17.929Z,9.03
2019-03-25T23:01:21.403Z,9.05
2019-03-25T23:06:24.886Z,8.25
2019-03-25T23:11:28.451Z,9.38
2019-03-25T23:16:31.936Z,7.08
2019-03-25T23:21:35.437Z,7.42
2019-03-25T23:26:38.959Z,9.13
2019-03-25T23:31:42.442Z,8.83
2019-03-25T23:36:45.980Z,6.12
2019-03-25T23:41:49.653Z,7.47
2019-03-25T23:46:53.178Z,6.45
2019-03-25T23:51:56.733Z,8.63
2019-03-25T23:57:00.194Z,7.17
